createdAt,value
2023-02-24T00:02:04.430Z,5.10
2023-02-24T00:04:39.842Z,4.72
2023-02-24T00:07:10.790Z,3.92
2023-02-24T00:09:39.300Z,3.15
2023-02-24T00:12:11.926Z,3.95
2023-02-24T00:14:42.219Z,4.28
2023-02-24T00:17:10.618Z,3.95
2023-02-24T00:19:38.639Z,4.38
2023-02-24T00:22:08.547Z,5.53
2023-02-24T00:24:36.272Z,4.07
2023-02-24T00:27:11.320Z,4.38
2023-02-24T00:29:40.167Z,3.88
2023-02-24T00:32:12.840Z,4.50
2023-02-24T00:34:41.173Z,4.47
2023-02-24T00:37:09.193Z,5.13
2023-02-24T00:39:41.463Z,5.13
2023-02-24T00:42:11.998Z,4.18
2023-02-24T00:44:46.073Z,5.63
2023-02-24T00:47:16.521Z,5.45
2023-02-24T00:49:43.907Z,4.50
2023-02-24T00:52:16.113Z,4.72
2023-02-24T00:54:45.977Z,3.85
2023-02-24T00:57:14.389Z,4.35
2023-02-24T00:59:42.549Z,4.50
2023-02-24T01:02:11.588Z,4.53
2023-02-24T01:04:39.214Z,5.43
2023-02-24T01:07:10.971Z,3.80
2023-02-24T01:09:40.525Z,4.82
2023-02-24T01:12:22.640Z,5.97
2023-02-24T01:17:20.668Z,4.35
2023-02-24T01:19:49.809Z,4.22
2023-02-24T01:22:19.031Z,4.32
2023-02-24T01:24:47.580Z,3.67
2023-02-24T01:27:19.752Z,5.40
2023-02-24T01:29:50.221Z,4.47
2023-02-24T01:32:20.881Z,4.68
2023-02-24T01:34:52.660Z,4.03
2023-02-24T01:37:21.104Z,5.22
2023-02-24T01:39:49.560Z,5.05
2023-02-24T01:42:20.528Z,3.92
2023-02-24T01:44:48.108Z,4.53
2023-02-24T01:47:23.183Z,4.30
2023-02-24T01:49:53.998Z,4.63
2023-02-24T01:52:25.514Z,5.00
2023-02-24T01:55:13.268Z,5.25
2023-02-24T01:57:43.349Z,4.15
2023-02-24T02:00:20.490Z,4.97
2023-02-24T02:02:53.106Z,4.20
2023-02-24T02:05:21.197Z,5.13
2023-02-24T02:07:50.270Z,4.63
2023-02-24T02:10:18.658Z,4.80
2023-02-24T02:12:46.352Z,5.15
2023-02-24T02:15:16.897Z,4.45
2023-02-24T02:17:46.814Z,4.60
2023-02-24T02:20:25.731Z,4.80
2023-02-24T02:23:37.896Z,4.65
2023-02-24T02:26:22.582Z,4.35
2023-02-24T02:29:33.965Z,4.97
2023-02-24T02:32:25.193Z,4.47
2023-02-24T02:35:37.333Z,4.97
2023-02-24T02:38:11.964Z,4.00
2023-02-24T02:41:15.684Z,5.07
2023-02-24T02:43:57.365Z,4.57
2023-02-24T02:46:50.929Z,5.03
2023-02-24T02:49:44.111Z,4.18
2023-02-24T02:52:36.873Z,4.65
2023-02-24T02:55:14.136Z,4.68
2023-02-24T02:57:47.267Z,5.35
2023-02-24T03:00:24.140Z,4.53
2023-02-24T03:02:58.284Z,4.57
2023-02-24T03:05:30.840Z,3.88
2023-02-24T03:08:00.849Z,3.60
2023-02-24T03:10:29.883Z,4.60
2023-02-24T03:13:00.641Z,4.15
2023-02-24T03:15:31.787Z,4.50
2023-02-24T03:18:10.552Z,4.25
2023-02-24T03:20:51.820Z,5.30
2023-02-24T03:23:25.864Z,7.70
2023-02-24T03:26:03.636Z,4.00
2023-02-24T03:28:37.586Z,4.57
2023-02-24T03:31:30.805Z,5.30
2023-02-24T03:34:14.898Z,4.05
2023-02-24T03:36:43.555Z,4.07
2023-02-24T03:39:12.466Z,4.50
2023-02-24T03:42:20.858Z,4.55
2023-02-24T03:44:49.023Z,3.97
2023-02-24T03:47:20.314Z,3.70
2023-02-24T03:49:48.581Z,4.53
2023-02-24T03:52:29.353Z,4.53
2023-02-24T03:55:24.849Z,5.03
2023-02-24T03:58:04.517Z,4.75
2023-02-24T04:00:49.772Z,4.47
2023-02-24T04:03:28.717Z,4.15
2023-02-24T04:06:14.432Z,3.72
2023-02-24T04:09:04.756Z,4.30
2023-02-24T04:12:02.963Z,7.00
2023-02-24T04:14:39.136Z,4.07
2023-02-24T04:17:19.722Z,4.57
2023-02-24T04:19:51.695Z,5.53
2023-02-24T04:22:24.689Z,4.38
2023-02-24T04:24:58.321Z,4.47
2023-02-24T04:27:28.494Z,3.97
2023-02-24T04:30:05.562Z,3.92
2023-02-24T04:32:33.750Z,4.55
2023-02-24T04:35:09.528Z,4.82
2023-02-24T04:37:45.481Z,4.70
2023-02-24T04:40:17.720Z,4.10
2023-02-24T04:42:49.058Z,4.80
2023-02-24T04:45:22.887Z,5.32
2023-02-24T04:47:53.140Z,4.65
2023-02-24T04:50:25.281Z,4.03
2023-02-24T04:55:29.184Z,4.07
2023-02-24T04:57:57.653Z,3.75
2023-02-24T05:00:26.773Z,5.38
2023-02-24T05:02:56.892Z,4.70
2023-02-24T05:05:28.294Z,4.43
2023-02-24T05:07:57.743Z,5.40
2023-02-24T05:10:28.065Z,6.18
2023-02-24T05:13:00.810Z,3.90
2023-02-24T05:15:32.850Z,4.03
2023-02-24T05:18:07.396Z,4.63
2023-02-24T05:21:02.032Z,5.20
2023-02-24T05:23:35.488Z,4.93
2023-02-24T05:26:08.634Z,5.03
2023-02-24T05:28:40.860Z,4.28
2023-02-24T05:31:11.058Z,4.35
2023-02-24T05:33:39.579Z,4.90
2023-02-24T05:36:09.220Z,4.72
2023-02-24T05:38:38.582Z,5.20
2023-02-24T05:48:51.254Z,4.55
2023-02-24T05:51:18.559Z,4.53
2023-02-24T05:53:45.891Z,4.68
2023-02-24T05:56:13.009Z,4.22
2023-02-24T05:58:40.142Z,4.13
2023-02-24T06:01:16.628Z,4.57
2023-02-24T06:03:48.131Z,5.15
2023-02-24T06:06:17.003Z,4.07
2023-02-24T06:08:50.973Z,3.85
2023-02-24T06:11:20.675Z,3.90
2023-02-24T06:13:48.314Z,3.58
2023-02-24T06:16:17.290Z,4.95
2023-02-24T06:18:49.480Z,4.47
2023-02-24T06:21:17.133Z,5.68
2023-02-24T06:23:45.318Z,3.95
2023-02-24T06:26:19.764Z,5.10
2023-02-24T06:28:48.139Z,4.82
2023-02-24T06:31:15.524Z,3.95
2023-02-24T06:33:42.666Z,3.60
2023-02-24T06:36:09.996Z,4.63
2023-02-24T06:38:37.785Z,4.47
2023-02-24T06:41:10.981Z,5.10
2023-02-24T06:43:46.196Z,5.15
2023-02-24T06:46:15.489Z,3.42
2023-02-24T06:48:42.794Z,3.67
2023-02-24T06:51:15.662Z,3.75
2023-02-24T06:53:44.164Z,3.75
2023-02-24T06:56:15.234Z,3.40
2023-02-24T06:58:43.919Z,4.25
2023-02-24T07:01:25.720Z,4.13
2023-02-24T07:04:07.635Z,3.80
2023-02-24T07:06:38.631Z,4.03
2023-02-24T07:09:10.697Z,3.63
2023-02-24T07:14:08.100Z,3.55
2023-02-24T07:16:36.205Z,3.83
2023-02-24T07:19:11.355Z,3.88
2023-02-24T07:21:41.108Z,3.60
2023-02-24T07:24:08.920Z,3.90
2023-02-24T07:26:41.631Z,3.92
2023-02-24T07:29:11.553Z,4.35
2023-02-24T07:31:39.987Z,3.58
2023-02-24T07:34:07.301Z,3.22
2023-02-24T07:36:49.305Z,4.38
2023-02-24T07:39:19.304Z,4.30
2023-02-24T07:41:49.724Z,4.10
2023-02-24T07:44:18.864Z,3.75
2023-02-24T07:46:49.053Z,4.05
2023-02-24T07:49:20.040Z,3.22
2023-02-24T07:51:52.717Z,3.55
2023-02-24T07:54:22.168Z,3.22
2023-02-24T07:56:57.053Z,2.67
2023-02-24T07:59:30.003Z,3.65
2023-02-24T08:01:57.589Z,4.28
2023-02-24T08:04:28.620Z,3.75
2023-02-24T08:06:57.641Z,3.60
2023-02-24T08:09:46.608Z,4.32
2023-02-24T08:12:18.014Z,4.43
2023-02-24T08:14:51.160Z,3.60
2023-02-24T08:17:20.525Z,3.97
2023-02-24T08:19:49.714Z,4.18
2023-02-24T08:22:20.396Z,4.13
2023-02-24T08:24:53.133Z,3.50
2023-02-24T08:27:22.248Z,3.63
2023-02-24T08:30:02.748Z,3.28
2023-02-24T08:32:37.482Z,3.33
2023-02-24T08:35:14.888Z,3.95
2023-02-24T08:37:48.507Z,3.42
2023-02-24T08:40:31.894Z,3.50
2023-02-24T08:43:16.528Z,6.18
2023-02-24T08:45:53.090Z,4.13
2023-02-24T08:48:26.635Z,3.60
2023-02-24T08:50:58.023Z,3.17
2023-02-24T08:53:31.425Z,3.72
2023-02-24T08:56:09.457Z,4.18
2023-02-24T08:58:41.167Z,3.35
2023-02-24T09:01:25.356Z,3.45
2023-02-24T09:03:58.259Z,4.18
2023-02-24T09:06:45.078Z,4.10
2023-02-24T09:09:19.351Z,4.68
2023-02-24T09:11:56.078Z,5.40
2023-02-24T09:14:28.930Z,3.28
2023-02-24T09:17:02.892Z,3.13
2023-02-24T09:19:48.212Z,5.43
2023-02-24T09:22:32.499Z,4.20
2023-02-24T09:25:24.310Z,4.15
2023-02-24T09:28:17.696Z,3.78
2023-02-24T09:30:58.895Z,3.58
2023-02-24T09:33:41.953Z,4.22
2023-02-24T09:36:13.862Z,4.35
2023-02-24T09:39:01.352Z,3.70
2023-02-24T09:41:56.946Z,3.83
2023-02-24T09:44:35.489Z,4.15
2023-02-24T09:47:57.108Z,4.07
2023-02-24T09:51:03.746Z,4.22
2023-02-24T09:53:42.594Z,4.00
2023-02-24T09:56:18.959Z,4.90
2023-02-24T09:58:55.422Z,3.78
2023-02-24T10:01:43.263Z,4.15
2023-02-24T10:04:49.490Z,4.25
2023-02-24T10:07:38.602Z,4.65
2023-02-24T10:10:21.178Z,3.55
2023-02-24T10:13:13.909Z,3.92
2023-02-24T10:15:59.046Z,3.50
2023-02-24T10:19:15.124Z,3.53
2023-02-24T10:22:30.252Z,5.93
2023-02-24T10:25:22.155Z,4.20
2023-02-24T10:28:04.399Z,4.90
2023-02-24T10:30:41.763Z,4.22
2023-02-24T10:33:25.534Z,4.45
2023-02-24T10:36:09.450Z,3.90
2023-02-24T10:38:38.530Z,3.70
2023-02-24T10:41:10.064Z,4.20
2023-02-24T10:43:45.712Z,4.45
2023-02-24T10:46:42.110Z,3.97
2023-02-24T10:49:17.209Z,4.25
2023-02-24T10:51:51.396Z,4.38
2023-02-24T10:54:54.996Z,3.92
2023-02-24T10:57:42.599Z,4.63
2023-02-24T11:00:38.866Z,3.97
2023-02-24T11:03:22.195Z,4.80
2023-02-24T11:06:03.953Z,8.60
2023-02-24T11:08:44.300Z,5.50
2023-02-24T11:11:54.731Z,4.70
2023-02-24T11:14:40.313Z,6.13
2023-02-24T11:17:23.492Z,5.28
2023-02-24T11:20:33.619Z,16.92
2023-02-24T11:23:15.041Z,7.22
2023-02-24T11:25:46.448Z,8.20
2023-02-24T11:29:07.589Z,6.00
2023-02-24T11:32:02.440Z,5.85
2023-02-24T11:35:06.361Z,5.07
2023-02-24T11:37:39.284Z,5.78
2023-02-24T11:40:09.391Z,5.43
2023-02-24T11:42:46.293Z,5.32
2023-02-24T11:45:39.058Z,5.28
2023-02-24T11:48:17.263Z,6.68
2023-02-24T11:51:05.823Z,5.63
2023-02-24T11:53:50.032Z,5.72
2023-02-24T11:56:21.731Z,5.72
2023-02-24T11:59:10.264Z,5.75
2023-02-24T12:01:56.258Z,5.90
2023-02-24T12:04:32.601Z,6.50
2023-02-24T12:07:06.715Z,6.35
2023-02-24T12:10:14.095Z,7.07
2023-02-24T12:13:07.716Z,6.18
2023-02-24T12:15:53.280Z,6.55
2023-02-24T12:18:33.426Z,6.15
2023-02-24T12:21:07.016Z,9.70
2023-02-24T12:23:37.582Z,6.82
2023-02-24T12:26:21.874Z,6.68
2023-02-24T12:28:57.017Z,7.45
2023-02-24T12:31:46.127Z,6.72
2023-02-24T12:34:28.414Z,6.10
2023-02-24T12:37:10.385Z,5.72
2023-02-24T12:39:59.308Z,6.85
2023-02-24T12:42:35.097Z,6.93
2023-02-24T12:45:37.206Z,6.47
2023-02-24T12:48:28.731Z,6.40
2023-02-24T12:51:09.998Z,5.80
2023-02-24T12:53:41.565Z,5.07
2023-02-24T12:56:11.795Z,6.20
2023-02-24T12:58:44.441Z,4.68
2023-02-24T13:01:30.243Z,5.03
2023-02-24T13:04:28.523Z,4.78
2023-02-24T13:07:01.233Z,4.32
2023-02-24T13:09:34.002Z,4.85
2023-02-24T13:12:13.071Z,6.18
2023-02-24T13:14:42.057Z,4.53
2023-02-24T13:17:12.211Z,5.45
2023-02-24T13:19:40.599Z,5.85
2023-02-24T13:22:13.915Z,4.88
2023-02-24T13:24:54.860Z,5.45
2023-02-24T13:27:30.638Z,4.88
2023-02-24T13:30:11.997Z,5.78
2023-02-24T13:32:43.086Z,6.00
2023-02-24T13:35:16.526Z,6.13
2023-02-24T13:37:48.303Z,6.63
2023-02-24T13:40:18.499Z,5.80
2023-02-24T13:42:59.409Z,6.43
2023-02-24T13:45:29.281Z,6.72
2023-02-24T13:48:05.742Z,6.65
2023-02-24T13:50:40.688Z,5.22
2023-02-24T13:53:23.874Z,4.97
2023-02-24T13:56:07.223Z,4.35
2023-02-24T13:59:10.135Z,2.65
2023-02-24T14:01:57.591Z,2.22
2023-02-24T14:04:29.746Z,2.67
2023-02-24T14:07:02.032Z,2.55
2023-02-24T14:12:14.920Z,5.75
2023-02-24T14:14:44.643Z,3.60
2023-02-24T14:17:38.183Z,3.58
2023-02-24T14:20:19.534Z,2.88
2023-02-24T14:22:50.621Z,3.67
2023-02-24T14:25:18.346Z,3.42
2023-02-24T14:27:53.684Z,2.58
2023-02-24T14:30:30.967Z,2.83
2023-02-24T14:32:58.827Z,2.95
2023-02-24T14:35:34.508Z,2.72
2023-02-24T14:38:02.431Z,3.17
2023-02-24T14:40:29.907Z,4.22
2023-02-24T14:42:57.755Z,2.40
2023-02-24T14:45:29.082Z,2.25
2023-02-24T14:47:57.138Z,2.90
2023-02-24T14:50:34.785Z,2.30
2023-02-24T14:53:10.009Z,3.67
2023-02-24T14:55:41.247Z,3.92
2023-02-24T14:58:23.886Z,3.97
2023-02-24T15:01:00.879Z,3.10
2023-02-24T15:03:46.229Z,2.95
2023-02-24T15:06:26.288Z,3.97
2023-02-24T15:09:06.302Z,2.80
2023-02-24T15:11:33.837Z,2.67
2023-02-24T15:14:07.750Z,3.47
2023-02-24T15:16:42.155Z,2.30
2023-02-24T15:19:44.305Z,3.00
2023-02-24T15:22:33.664Z,2.83
2023-02-24T15:25:20.358Z,3.22
2023-02-24T15:28:03.063Z,2.85
2023-02-24T15:30:32.331Z,3.38
2023-02-24T15:33:08.468Z,3.05
2023-02-24T15:35:46.419Z,3.38
2023-02-24T15:38:22.983Z,2.60
2023-02-24T15:41:04.395Z,3.85
2023-02-24T15:43:39.226Z,3.38
2023-02-24T15:46:22.112Z,3.25
2023-02-24T15:48:52.213Z,3.20
2023-02-24T15:51:47.212Z,2.83
2023-02-24T15:54:20.985Z,1.98
2023-02-24T15:56:49.278Z,2.35
2023-02-24T15:59:18.410Z,2.75
2023-02-24T16:01:45.650Z,2.90
2023-02-24T16:04:12.919Z,2.83
2023-02-24T16:06:44.124Z,2.65
2023-02-24T16:09:16.177Z,2.90
2023-02-24T16:11:46.955Z,2.78
2023-02-24T16:14:17.412Z,2.72
2023-02-24T16:16:45.207Z,3.55
2023-02-24T16:19:16.500Z,2.90
2023-02-24T16:21:44.489Z,3.30
2023-02-24T16:24:12.419Z,3.45
2023-02-24T16:26:40.866Z,3.13
2023-02-24T16:29:14.096Z,2.83
2023-02-24T16:31:42.188Z,2.92
2023-02-24T16:34:18.229Z,2.90
2023-02-24T16:36:45.644Z,2.13
2023-02-24T16:39:14.460Z,3.22
2023-02-24T16:41:41.741Z,2.85
2023-02-24T16:44:10.658Z,2.85
2023-02-24T16:46:41.373Z,2.78
2023-02-24T16:49:13.376Z,2.50
2023-02-24T16:51:40.702Z,2.55
2023-02-24T16:54:08.501Z,2.38
2023-02-24T16:56:35.838Z,2.05
2023-02-24T16:59:03.133Z,2.75
2023-02-24T17:01:30.726Z,1.85
2023-02-24T17:03:58.053Z,2.45
2023-02-24T17:06:26.240Z,2.05
2023-02-24T17:08:54.019Z,2.28
2023-02-24T17:11:23.358Z,1.83
2023-02-24T17:13:50.520Z,2.15
2023-02-24T17:16:17.790Z,2.65
2023-02-24T17:18:45.042Z,1.85
2023-02-24T17:21:16.832Z,3.03
2023-02-24T17:23:44.580Z,2.05
2023-02-24T17:26:15.206Z,2.58
2023-02-24T17:28:42.571Z,2.85
2023-02-24T17:31:10.051Z,2.60
2023-02-24T17:33:37.247Z,2.47
2023-02-24T17:36:04.607Z,2.83
2023-02-24T17:38:31.890Z,2.50
2023-02-24T17:41:01.928Z,3.53
2023-02-24T17:43:29.646Z,4.45
2023-02-24T17:45:56.982Z,2.53
2023-02-24T17:48:24.377Z,2.60
2023-02-24T17:50:52.159Z,2.42
2023-02-24T17:53:19.397Z,2.60
2023-02-24T17:56:01.814Z,2.30
2023-02-24T17:58:29.806Z,2.47
2023-02-24T18:00:57.448Z,2.70
2023-02-24T18:03:24.880Z,2.78
2023-02-24T18:06:13.118Z,2.85
2023-02-24T18:08:41.244Z,2.20
2023-02-24T18:11:13.914Z,2.85
2023-02-24T18:13:41.083Z,2.22
2023-02-24T18:16:15.005Z,2.85
2023-02-24T18:18:42.265Z,2.55
2023-02-24T18:21:09.531Z,2.42
2023-02-24T18:23:40.289Z,2.53
2023-02-24T18:26:09.091Z,2.40
2023-02-24T18:28:36.419Z,2.38
2023-02-24T18:31:14.856Z,2.28
2023-02-24T18:33:42.500Z,3.08
2023-02-24T18:36:10.419Z,4.20
2023-02-24T18:38:37.778Z,2.95
2023-02-24T18:41:08.045Z,2.53
2023-02-24T18:43:35.946Z,2.40
2023-02-24T18:46:06.221Z,2.08
2023-02-24T18:48:34.780Z,3.28
2023-02-24T18:51:02.465Z,2.55
2023-02-24T18:53:34.275Z,2.47
2023-02-24T18:56:07.094Z,2.63
2023-02-24T18:58:35.186Z,2.80
2023-02-24T19:01:09.645Z,3.10
2023-02-24T19:03:36.961Z,1.85
2023-02-24T19:06:04.508Z,1.80
2023-02-24T19:08:32.108Z,2.22
2023-02-24T19:10:59.374Z,2.00
2023-02-24T19:13:26.693Z,2.42
2023-02-24T19:15:53.888Z,2.00
2023-02-24T19:18:21.201Z,2.25
2023-02-24T19:20:48.334Z,2.08
2023-02-24T19:23:15.514Z,2.28
2023-02-24T19:25:42.764Z,2.50
2023-02-24T19:28:09.912Z,1.83
2023-02-24T19:30:39.477Z,2.83
2023-02-24T19:33:07.242Z,2.72
2023-02-24T19:35:34.722Z,1.83
2023-02-24T19:38:02.116Z,1.38
2023-02-24T19:40:29.325Z,2.03
2023-02-24T19:42:56.440Z,1.58
2023-02-24T19:45:23.790Z,1.75
2023-02-24T19:47:51.107Z,2.17
2023-02-24T19:50:18.447Z,2.17
2023-02-24T19:52:45.720Z,1.67
2023-02-24T19:55:13.442Z,3.50
2023-02-24T19:57:40.707Z,2.25
2023-02-24T20:00:11.725Z,3.42
2023-02-24T20:02:41.884Z,1.88
2023-02-24T20:05:10.484Z,1.67
2023-02-24T20:07:38.010Z,2.15
2023-02-24T20:10:05.673Z,1.75
2023-02-24T20:12:32.929Z,1.70
2023-02-24T20:15:00.322Z,1.50
2023-02-24T20:17:27.707Z,1.50
2023-02-24T20:19:54.940Z,2.08
2023-02-24T20:22:22.166Z,2.15
2023-02-24T20:24:50.433Z,2.08
2023-02-24T20:27:19.055Z,1.83
2023-02-24T20:29:46.459Z,1.73
2023-02-24T20:32:14.419Z,1.95
2023-02-24T20:34:42.124Z,1.92
2023-02-24T20:37:09.279Z,2.13
2023-02-24T20:39:36.599Z,2.38
2023-02-24T20:42:03.965Z,2.17
2023-02-24T20:44:31.202Z,2.05
2023-02-24T20:46:58.835Z,2.33
2023-02-24T20:49:27.035Z,2.20
2023-02-24T20:51:54.205Z,1.70
2023-02-24T20:54:21.584Z,2.45
2023-02-24T20:56:48.837Z,1.90
2023-02-24T20:59:18.306Z,1.75
2023-02-24T21:01:47.919Z,1.80
2023-02-24T21:04:17.951Z,2.08
2023-02-24T21:06:47.796Z,2.30
2023-02-24T21:09:16.213Z,1.70
2023-02-24T21:11:43.526Z,2.20
2023-02-24T21:14:15.671Z,2.22
2023-02-24T21:16:43.280Z,2.65
2023-02-24T21:19:10.476Z,3.35
2023-02-24T21:21:37.821Z,1.77
2023-02-24T21:24:05.993Z,1.80
2023-02-24T21:26:33.506Z,1.70
2023-02-24T21:29:00.798Z,1.75
2023-02-24T21:31:28.481Z,2.22
2023-02-24T21:33:56.358Z,1.90
2023-02-24T21:36:26.048Z,2.22
2023-02-24T21:38:54.368Z,1.80
2023-02-24T21:41:21.960Z,2.17
2023-02-24T21:43:54.815Z,2.95
2023-02-24T21:46:22.767Z,2.17
2023-02-24T21:48:55.309Z,1.52
2023-02-24T21:51:24.837Z,2.47
2023-02-24T21:53:55.107Z,2.00
2023-02-24T21:56:31.710Z,2.90
2023-02-24T21:59:06.158Z,2.20
2023-02-24T22:01:36.225Z,2.78
2023-02-24T22:04:06.406Z,2.53
2023-02-24T22:06:36.590Z,2.00
2023-02-24T22:09:06.766Z,1.90
2023-02-24T22:11:37.122Z,2.30
2023-02-24T22:14:14.340Z,2.25
2023-02-24T22:16:42.404Z,2.38
2023-02-24T22:19:09.968Z,2.33
2023-02-24T22:21:39.280Z,2.20
2023-02-24T22:24:06.747Z,2.70
2023-02-24T22:26:34.112Z,2.97
2023-02-24T22:29:02.443Z,2.15
2023-02-24T22:31:32.083Z,1.90
2023-02-24T22:33:59.624Z,2.08
2023-02-24T22:36:30.963Z,1.60
2023-02-24T22:38:59.861Z,2.10
2023-02-24T22:41:31.392Z,2.28
2023-02-24T22:43:59.682Z,1.88
2023-02-24T22:46:30.583Z,2.67
2023-02-24T22:48:58.575Z,2.05
2023-02-24T22:51:26.951Z,2.30
2023-02-24T22:53:54.906Z,2.63
2023-02-24T22:56:27.046Z,2.97
2023-02-24T22:58:55.049Z,2.30
2023-02-24T23:01:28.307Z,2.30
2023-02-24T23:03:56.027Z,2.65
2023-02-24T23:06:26.228Z,2.75
2023-02-24T23:08:54.267Z,3.03
2023-02-24T23:11:24.971Z,4.85
2023-02-24T23:13:52.490Z,3.45
2023-02-24T23:16:22.663Z,3.28
2023-02-24T23:18:51.132Z,3.45
2023-02-24T23:21:22.446Z,3.55
2023-02-24T23:23:50.395Z,4.73
2023-02-24T23:26:18.186Z,3.97
2023-02-24T23:28:46.171Z,2.88
2023-02-24T23:31:19.478Z,2.97
2023-02-24T23:33:46.912Z,2.42
2023-02-24T23:36:14.073Z,2.97
2023-02-24T23:38:41.264Z,2.90
2023-02-24T23:41:10.083Z,2.83
2023-02-24T23:43:38.180Z,3.35
2023-02-24T23:46:07.075Z,3.58
2023-02-24T23:48:34.515Z,4.18
2023-02-24T23:51:12.476Z,3.67
2023-02-24T23:53:46.099Z,3.13
2023-02-24T23:56:25.430Z,3.85
2023-02-24T23:58:54.418Z,3.08
